createdAt,value
2018-01-11T00:00:32.469Z,6.79
2018-01-11T00:01:31.689Z,6.76
2018-01-11T00:02:31.870Z,6.77
2018-01-11T00:03:32.116Z,6.75
2018-01-11T00:04:32.500Z,6.75
2018-01-11T00:05:31.711Z,6.74
2018-01-11T00:06:31.914Z,6.76
2018-01-11T00:07:32.242Z,6.75
2018-01-11T00:08:31.694Z,6.74
2018-01-11T00:09:31.893Z,6.74
2018-01-11T00:10:32.263Z,6.76
2018-01-11T00:11:31.553Z,6.73
2018-01-11T00:12:31.735Z,6.74
2018-01-11T00:13:31.992Z,6.73
2018-01-11T00:14:31.122Z,6.75
2018-01-11T00:15:31.535Z,6.77
2018-01-11T00:16:31.810Z,6.73
2018-01-11T00:17:31.824Z,6.74
2018-01-11T00:18:31.857Z,6.72
2018-01-11T00:19:31.139Z,6.73
2018-01-11T00:20:31.226Z,6.7
2018-01-11T00:21:31.339Z,6.7
2018-01-11T00:22:31.511Z,6.7
2018-01-11T00:23:31.676Z,6.73
2018-01-11T00:24:32.023Z,6.77
2018-01-11T00:25:31.384Z,6.75
2018-01-11T00:26:31.702Z,6.73
2018-01-11T00:27:32.060Z,6.73
2018-01-11T00:28:31.373Z,6.73
2018-01-11T00:29:31.533Z,6.69
2018-01-11T00:30:31.939Z,6.75
2018-01-11T00:31:31.164Z,6.75
2018-01-11T00:32:31.526Z,6.76
2018-01-11T00:33:31.846Z,6.75
2018-01-11T00:34:31.081Z,6.72
2018-01-11T00:35:31.394Z,6.71
2018-01-11T00:36:31.638Z,6.72
2018-01-11T00:37:31.824Z,6.71
2018-01-11T00:38:31.308Z,6.71
2018-01-11T00:39:31.553Z,6.68
2018-01-11T00:40:31.712Z,6.66
2018-01-11T00:41:31.087Z,6.69
2018-01-11T00:42:31.423Z,6.68
2018-01-11T00:43:31.748Z,6.68
2018-01-11T00:44:31.292Z,6.65
2018-01-11T00:45:31.656Z,6.68
2018-01-11T00:46:31.921Z,6.71
2018-01-11T00:47:31.029Z,6.69
2018-01-11T00:48:31.185Z,6.67
2018-01-11T00:49:31.483Z,6.69
2018-01-11T00:50:31.591Z,6.72
2018-01-11T00:51:31.703Z,6.72
2018-01-11T00:52:31.092Z,6.67
2018-01-11T00:53:31.346Z,6.67
2018-01-11T00:54:31.749Z,6.67
2018-01-11T00:55:31.944Z,6.65
2018-01-11T00:56:31.152Z,6.65
2018-01-11T00:57:31.394Z,6.65
2018-01-11T00:58:31.532Z,6.64
2018-01-11T00:59:31.791Z,6.65
2018-01-11T01:00:32.031Z,6.67
2018-01-11T01:01:31.302Z,6.66
2018-01-11T01:02:31.598Z,6.67
2018-01-11T01:03:31.978Z,6.65
2018-01-11T01:04:31.203Z,6.65
2018-01-11T01:05:31.445Z,6.64
2018-01-11T01:06:31.754Z,6.64
2018-01-11T01:07:31.169Z,6.65
2018-01-11T01:08:31.551Z,6.62
2018-01-11T01:09:31.864Z,6.65
2018-01-11T01:10:31.108Z,6.64
2018-01-11T01:11:31.292Z,6.66
2018-01-11T01:12:31.799Z,6.65
2018-01-11T01:13:32.081Z,6.63
2018-01-11T01:14:31.731Z,6.64
2018-01-11T01:15:31.839Z,6.63
2018-01-11T01:16:32.294Z,6.63
2018-01-11T01:17:32.510Z,6.64
2018-01-11T01:18:31.714Z,6.65
2018-01-11T01:19:32.022Z,6.64
2018-01-11T01:20:32.279Z,6.67
2018-01-11T01:21:32.765Z,6.69
2018-01-11T01:22:32.083Z,6.69
2018-01-11T01:23:32.331Z,6.67
2018-01-11T01:24:32.544Z,6.66
2018-01-11T01:25:32.321Z,6.65
2018-01-11T01:26:32.689Z,6.66
2018-01-11T01:27:32.096Z,6.67
2018-01-11T01:28:32.425Z,6.65
2018-01-11T01:29:31.732Z,6.65
2018-01-11T01:30:31.936Z,6.68
2018-01-11T01:31:32.280Z,6.69
2018-01-11T01:32:32.738Z,6.68
2018-01-11T01:33:32.089Z,6.68
2018-01-11T01:36:32.680Z,6.65
2018-01-11T01:37:31.872Z,6.64
2018-01-11T01:38:32.055Z,6.63
2018-01-11T01:39:32.299Z,6.66
2018-01-11T01:40:32.554Z,6.66
2018-01-11T01:41:31.984Z,6.66
2018-01-11T01:42:32.266Z,6.67
2018-01-11T01:43:32.493Z,6.66
2018-01-11T01:44:31.684Z,6.64
2018-01-11T01:45:31.006Z,6.66
2018-01-11T01:46:31.454Z,6.65
2018-01-11T01:47:30.748Z,6.69
2018-01-11T01:48:31.074Z,6.67
2018-01-11T01:49:31.418Z,6.65
2018-01-11T01:50:31.556Z,6.67
2018-01-11T01:51:30.786Z,6.68
2018-01-11T01:52:31.136Z,6.68
2018-01-11T01:53:31.420Z,6.66
2018-01-11T01:54:30.720Z,6.68
2018-01-11T01:55:30.900Z,6.67
2018-01-11T01:56:30.953Z,6.66
2018-01-11T01:57:31.472Z,6.62
2018-01-11T01:58:30.852Z,6.65
2018-01-11T01:59:31.146Z,6.66
2018-01-11T02:00:31.333Z,6.62
2018-01-11T02:01:31.495Z,6.64
2018-01-11T02:02:30.759Z,6.65
2018-01-11T02:03:30.994Z,6.66
2018-01-11T02:04:31.184Z,6.66
2018-01-11T02:05:31.369Z,6.64
2018-01-11T02:06:31.649Z,6.63
2018-01-11T02:07:30.968Z,6.67
2018-01-11T02:08:31.055Z,6.66
2018-01-11T02:09:31.188Z,6.63
2018-01-11T02:10:31.349Z,6.65
2018-01-11T02:11:31.846Z,6.6
2018-01-11T02:12:30.897Z,6.62
2018-01-11T02:13:31.149Z,6.6
2018-01-11T02:14:31.291Z,6.6
2018-01-11T02:15:31.504Z,6.6
2018-01-11T02:16:31.959Z,6.6
2018-01-11T02:17:32.128Z,6.62
2018-01-11T02:18:31.380Z,6.6
2018-01-11T02:19:32.443Z,6.61
2018-01-11T02:20:31.587Z,6.63
2018-01-11T02:21:31.637Z,6.6
2018-01-11T02:22:31.844Z,6.61
2018-01-11T02:23:32.060Z,6.6
2018-01-11T02:24:32.291Z,6.61
2018-01-11T02:25:31.735Z,6.6
2018-01-11T02:26:32.003Z,6.64
2018-01-11T02:27:32.327Z,6.6
2018-01-11T02:29:35.830Z,6.6
2018-01-11T02:30:32.197Z,6.59
2018-01-11T02:31:31.485Z,6.6
2018-01-11T02:32:31.708Z,6.62
2018-01-11T02:33:31.981Z,6.6
2018-01-11T02:34:32.307Z,6.6
2018-01-11T02:35:31.907Z,6.6
2018-01-11T02:36:32.033Z,6.6
2018-01-11T02:37:32.280Z,6.64
2018-01-11T02:38:31.573Z,6.64
2018-01-11T02:39:31.918Z,6.64
2018-01-11T02:40:32.130Z,6.64
2018-01-11T02:41:32.316Z,6.62
2018-01-11T02:42:31.686Z,6.66
2018-01-11T02:43:31.889Z,6.64
2018-01-11T02:45:32.168Z,6.64
2018-01-11T02:46:31.495Z,6.64
2018-01-11T02:47:31.616Z,6.66
2018-01-11T02:48:31.819Z,6.66
2018-01-11T02:49:31.952Z,6.68
2018-01-11T02:50:31.282Z,6.66
2018-01-11T02:51:31.466Z,6.69
2018-01-11T02:52:31.654Z,6.67
2018-01-11T02:53:31.862Z,6.66
2018-01-11T02:54:31.105Z,6.68
2018-01-11T02:55:31.364Z,6.67
2018-01-11T02:56:31.624Z,6.64
2018-01-11T02:57:31.926Z,6.61
2018-01-11T02:58:31.152Z,6.64
2018-01-11T02:59:31.401Z,6.62
2018-01-11T03:00:31.809Z,6.61
2018-01-11T03:01:31.286Z,6.62
2018-01-11T03:02:31.508Z,6.62
2018-01-11T03:03:31.772Z,6.61
2018-01-11T03:04:31.033Z,6.61
2018-01-11T03:05:31.377Z,6.59
2018-01-11T03:06:31.737Z,6.61
2018-01-11T03:07:31.138Z,6.62
2018-01-11T03:08:31.479Z,6.58
2018-01-11T03:09:31.759Z,6.59
2018-01-11T03:10:32.059Z,6.6
2018-01-11T03:11:31.382Z,6.59
2018-01-11T03:12:31.874Z,6.58
2018-01-11T03:13:31.126Z,6.57
2018-01-11T03:14:31.583Z,6.59
2018-01-11T03:15:31.980Z,6.63
2018-01-11T03:16:31.487Z,6.61
2018-01-11T03:17:31.887Z,6.62
2018-01-11T03:18:32.204Z,6.62
2018-01-11T03:19:31.477Z,6.65
2018-01-11T03:20:31.871Z,6.66
2018-01-11T03:21:32.175Z,6.64
2018-01-11T03:22:31.663Z,6.67
2018-01-11T03:23:31.932Z,6.65
2018-01-11T03:24:32.163Z,6.63
2018-01-11T03:25:31.449Z,6.65
2018-01-11T03:26:31.893Z,6.65
2018-01-11T03:27:32.289Z,6.62
2018-01-11T03:28:31.582Z,6.62
2018-01-11T03:29:31.794Z,6.63
2018-01-11T03:30:32.123Z,6.63
2018-01-11T03:31:32.334Z,6.62
2018-01-11T03:32:31.564Z,6.62
2018-01-11T03:33:32.136Z,6.62
2018-01-11T03:34:31.578Z,6.61
2018-01-11T03:35:32.094Z,6.61
2018-01-11T03:36:31.495Z,6.63
2018-01-11T03:37:31.724Z,6.62
2018-01-11T03:38:31.858Z,6.61
2018-01-11T03:39:32.147Z,6.62
2018-01-11T03:40:31.590Z,6.6
2018-01-11T03:41:31.760Z,6.61
2018-01-11T03:42:32.093Z,6.6
2018-01-11T03:43:31.597Z,6.59
2018-01-11T03:44:31.931Z,6.57
2018-01-11T03:45:32.357Z,6.57
2018-01-11T03:46:31.840Z,6.58
2018-01-11T03:47:31.276Z,6.6
2018-01-11T03:48:31.708Z,6.58
2018-01-11T03:49:31.029Z,6.6
2018-01-11T03:50:31.444Z,6.62
2018-01-11T03:51:31.724Z,6.6
2018-01-11T03:52:31.003Z,6.59
2018-01-11T03:53:31.301Z,6.57
2018-01-11T03:54:32.015Z,6.59
2018-01-11T03:55:31.277Z,6.6
2018-01-11T03:56:31.692Z,6.6
2018-01-11T03:57:31.096Z,6.6
2018-01-11T03:58:31.399Z,6.62
2018-01-11T03:59:31.714Z,6.58
2018-01-11T04:00:31.225Z,6.56
2018-01-11T04:01:31.546Z,6.54
2018-01-11T04:02:30.898Z,6.57
2018-01-11T04:03:31.225Z,6.55
2018-01-11T04:04:31.653Z,6.55
2018-01-11T04:05:31.215Z,6.58
2018-01-11T04:06:31.518Z,6.59
2018-01-11T04:07:31.778Z,6.55
2018-01-11T04:08:31.017Z,6.58
2018-01-11T04:09:31.133Z,6.56
2018-01-11T04:10:31.213Z,6.56
2018-01-11T04:11:31.480Z,6.55
2018-01-11T04:12:30.819Z,6.56
2018-01-11T04:13:30.932Z,6.55
2018-01-11T04:14:31.160Z,6.55
2018-01-11T04:15:31.411Z,6.56
2018-01-11T04:16:30.778Z,6.51
2018-01-11T04:17:30.962Z,6.55
2018-01-11T04:18:31.225Z,6.58
2018-01-11T04:19:31.604Z,6.59
2018-01-11T04:20:31.646Z,6.6
2018-01-11T04:21:31.738Z,6.59
2018-01-11T04:22:31.943Z,6.58
2018-01-11T04:23:31.229Z,6.54
2018-01-11T04:24:31.642Z,6.54
2018-01-11T04:25:31.877Z,6.52
2018-01-11T04:26:31.214Z,6.51
2018-01-11T04:27:31.336Z,6.51
2018-01-11T04:28:31.524Z,6.54
2018-01-11T04:29:31.879Z,6.53
2018-01-11T04:30:31.081Z,6.51
2018-01-11T04:31:31.200Z,6.52
2018-01-11T04:32:31.413Z,6.53
2018-01-11T04:33:31.628Z,6.53
2018-01-11T04:34:31.938Z,6.52
2018-01-11T04:35:31.340Z,6.54
2018-01-11T04:36:31.553Z,6.52
2018-01-11T04:37:32.050Z,6.5
2018-01-11T04:38:31.376Z,6.5
2018-01-11T04:39:31.677Z,6.54
2018-01-11T04:40:31.960Z,6.52
2018-01-11T04:41:31.245Z,6.52
2018-01-11T04:42:31.660Z,6.52
2018-01-11T04:43:31.872Z,6.53
2018-01-11T04:44:31.103Z,6.52
2018-01-11T04:45:31.490Z,6.51
2018-01-11T04:46:31.978Z,6.54
2018-01-11T04:47:31.264Z,6.53
2018-01-11T04:48:31.448Z,6.53
2018-01-11T04:49:31.581Z,6.51
2018-01-11T04:50:31.735Z,6.51
2018-01-11T04:51:32.057Z,6.52
2018-01-11T04:52:32.355Z,6.52
2018-01-11T04:53:31.555Z,6.55
2018-01-11T04:54:31.690Z,6.55
2018-01-11T04:55:31.898Z,6.53
2018-01-11T04:56:31.974Z,6.51
2018-01-11T04:57:32.196Z,6.51
2018-01-11T04:58:31.589Z,6.53
2018-01-11T04:59:31.802Z,6.52
2018-01-11T05:00:31.958Z,6.54
2018-01-11T05:01:32.143Z,6.51
2018-01-11T05:02:31.458Z,6.52
2018-01-11T05:03:31.720Z,6.53
2018-01-11T05:04:32.286Z,6.51
2018-01-11T05:05:31.946Z,6.53
2018-01-11T05:06:32.033Z,6.49
2018-01-11T05:07:32.257Z,6.52
2018-01-11T05:08:31.558Z,6.5
2018-01-11T05:09:31.911Z,6.52
2018-01-11T05:10:32.086Z,6.52
2018-01-11T05:11:32.214Z,6.48
2018-01-11T05:12:32.423Z,6.5
2018-01-11T05:13:31.672Z,6.53
2018-01-11T05:14:31.708Z,6.52
2018-01-11T05:15:31.966Z,6.56
2018-01-11T05:16:32.083Z,6.54
2018-01-11T05:17:32.450Z,6.53
2018-01-11T05:18:31.753Z,6.54
2018-01-11T05:19:31.920Z,6.56
2018-01-11T05:20:32.208Z,6.58
2018-01-11T05:21:32.628Z,6.58
2018-01-11T05:22:31.910Z,6.54
2018-01-11T05:23:32.172Z,6.57
2018-01-11T05:24:31.291Z,6.53
2018-01-11T05:25:31.386Z,6.53
2018-01-11T05:26:31.557Z,6.56
2018-01-11T05:27:32.153Z,6.6
2018-01-11T05:28:32.217Z,6.59
2018-01-11T05:29:32.443Z,6.58
2018-01-11T05:30:31.878Z,6.54
2018-01-11T05:31:32.062Z,6.54
2018-01-11T05:32:32.222Z,6.61
2018-01-11T05:33:31.411Z,6.61
2018-01-11T05:34:31.542Z,6.62
2018-01-11T05:35:31.936Z,6.56
2018-01-11T05:36:32.365Z,6.55
2018-01-11T05:37:31.553Z,6.56
2018-01-11T05:38:32.075Z,6.59
2018-01-11T05:39:32.299Z,6.58
2018-01-11T05:40:31.465Z,6.57
2018-01-11T05:41:31.876Z,6.56
2018-01-11T05:42:32.628Z,6.53
2018-01-11T05:43:32.095Z,6.51
2018-01-11T05:44:32.556Z,6.53
2018-01-11T05:45:31.873Z,6.54
2018-01-11T05:46:32.743Z,6.56
2018-01-11T05:47:31.956Z,6.52
2018-01-11T05:48:32.257Z,6.53
2018-01-11T05:49:31.431Z,6.53
2018-01-11T05:50:31.609Z,6.49
2018-01-11T05:51:31.898Z,6.51
2018-01-11T05:52:31.460Z,6.5
2018-01-11T05:53:31.642Z,6.47
2018-01-11T05:54:31.927Z,6.5
2018-01-11T05:55:32.284Z,6.44
2018-01-11T05:56:31.779Z,6.45
2018-01-11T05:57:32.183Z,6.49
2018-01-11T05:58:31.501Z,6.53
2018-01-11T05:59:31.876Z,6.5
2018-01-11T06:00:32.100Z,6.47
2018-01-11T06:01:31.464Z,6.5
2018-01-11T06:02:31.858Z,6.48
2018-01-11T06:03:31.336Z,6.44
2018-01-11T06:04:31.654Z,6.46
2018-01-11T06:05:31.812Z,6.43
2018-01-11T06:06:32.052Z,6.44
2018-01-11T06:07:31.240Z,6.45
2018-01-11T06:08:31.546Z,6.48
2018-01-11T06:09:31.766Z,6.44
2018-01-11T06:10:31.858Z,6.42
2018-01-11T06:11:32.110Z,6.39
2018-01-11T06:12:31.294Z,6.38
2018-01-11T06:13:31.485Z,6.39
2018-01-11T06:14:31.822Z,6.39
2018-01-11T06:15:32.061Z,6.39
2018-01-11T06:16:32.281Z,6.39
2018-01-11T06:17:31.473Z,6.4
2018-01-11T06:18:31.589Z,6.39
2018-01-11T06:19:32.040Z,6.4
2018-01-11T06:20:31.387Z,6.38
2018-01-11T06:21:31.481Z,6.38
2018-01-11T06:22:31.626Z,6.38
2018-01-11T06:23:31.989Z,6.36
2018-01-11T06:24:31.571Z,6.34
2018-01-11T06:25:31.831Z,6.35
2018-01-11T06:26:31.021Z,6.38
2018-01-11T06:27:31.473Z,6.39
2018-01-11T06:28:31.745Z,6.34
2018-01-11T06:29:31.190Z,6.37
2018-01-11T06:30:31.355Z,6.39
2018-01-11T06:31:31.530Z,6.35
2018-01-11T06:32:31.075Z,6.35
2018-01-11T06:33:31.225Z,6.35
2018-01-11T06:34:31.596Z,6.32
2018-01-11T06:35:31.066Z,6.36
2018-01-11T06:36:31.356Z,6.36
2018-01-11T06:37:31.668Z,6.33
2018-01-11T06:38:30.980Z,6.33
2018-01-11T06:39:31.808Z,6.33
2018-01-11T06:40:31.110Z,6.3
2018-01-11T06:41:31.257Z,6.3
2018-01-11T06:42:31.597Z,6.33
2018-01-11T06:43:31.948Z,6.34
2018-01-11T06:44:31.276Z,6.34
2018-01-11T06:45:31.786Z,6.35
2018-01-11T06:46:31.058Z,6.33
2018-01-11T06:47:31.233Z,6.33
2018-01-11T06:48:31.375Z,6.36
2018-01-11T06:49:31.632Z,6.35
2018-01-11T06:50:32.078Z,6.35
2018-01-11T06:51:31.298Z,6.35
2018-01-11T06:52:31.435Z,6.35
2018-01-11T06:53:31.669Z,6.34
2018-01-11T06:54:31.909Z,6.31
2018-01-11T06:55:31.298Z,6.34
2018-01-11T06:56:31.468Z,6.31
2018-01-11T06:57:31.673Z,6.35
2018-01-11T06:58:31.782Z,6.33
2018-01-11T06:59:31.019Z,6.35
2018-01-11T07:00:31.300Z,6.34
2018-01-11T07:01:31.532Z,6.3
2018-01-11T07:02:31.811Z,6.35
2018-01-11T07:03:31.125Z,6.34
2018-01-11T07:04:31.430Z,6.34
2018-01-11T07:05:31.708Z,6.33
2018-01-11T07:06:31.845Z,6.34
2018-01-11T07:07:31.144Z,6.32
2018-01-11T07:08:31.298Z,6.34
2018-01-11T07:09:31.418Z,6.32
2018-01-11T07:10:31.749Z,6.34
2018-01-11T07:11:30.899Z,6.32
2018-01-11T07:12:31.009Z,6.33
2018-01-11T07:13:31.250Z,6.29
2018-01-11T07:14:31.600Z,6.3
2018-01-11T07:15:31.904Z,6.35
2018-01-11T07:16:31.452Z,6.34
2018-01-11T07:17:31.626Z,6.32
2018-01-11T07:18:31.129Z,6.32
2018-01-11T07:19:31.339Z,6.29
2018-01-11T07:20:31.551Z,6.3
2018-01-11T07:21:32.126Z,6.3
2018-01-11T07:22:31.503Z,6.32
2018-01-11T07:23:31.728Z,6.32
2018-01-11T07:24:30.938Z,6.33
2018-01-11T07:25:31.177Z,6.32
2018-01-11T07:26:31.483Z,6.34
2018-01-11T07:27:31.832Z,6.36
2018-01-11T07:28:31.272Z,6.37
2018-01-11T07:29:31.528Z,6.35
2018-01-11T07:30:31.784Z,6.33
2018-01-11T07:31:31.058Z,6.33
2018-01-11T07:32:31.386Z,6.32
2018-01-11T07:33:31.753Z,6.35
2018-01-11T07:34:31.139Z,6.3
2018-01-11T07:35:32.112Z,6.31
2018-01-11T07:36:31.202Z,6.32
2018-01-11T07:37:31.378Z,6.3
2018-01-11T07:38:31.510Z,6.3
2018-01-11T07:39:31.104Z,6.28
2018-01-11T07:40:31.434Z,6.3
2018-01-11T07:41:31.704Z,6.32
2018-01-11T07:42:31.087Z,6.32
2018-01-11T07:43:31.249Z,6.37
2018-01-11T07:44:31.536Z,6.37
2018-01-11T07:45:31.676Z,6.39
2018-01-11T07:46:31.816Z,6.37
2018-01-11T07:47:31.006Z,6.35
2018-01-11T07:48:31.162Z,6.34
2018-01-11T07:49:31.293Z,6.37
2018-01-11T07:50:31.604Z,6.35
2018-01-11T07:51:31.716Z,6.34
2018-01-11T07:52:31.024Z,6.37
2018-01-11T07:53:31.248Z,6.36
2018-01-11T07:54:31.486Z,6.36
2018-01-11T07:55:31.807Z,6.36
2018-01-11T07:56:31.085Z,6.35
2018-01-11T07:57:31.307Z,6.34
2018-01-11T07:58:31.508Z,6.34
2018-01-11T07:59:31.925Z,6.32
2018-01-11T08:00:31.256Z,6.36
2018-01-11T08:01:31.510Z,6.34
2018-01-11T08:02:31.706Z,6.33
2018-01-11T08:03:31.172Z,6.33
2018-01-11T08:04:31.329Z,6.33
2018-01-11T08:05:31.523Z,6.36
2018-01-11T08:06:31.603Z,6.35
2018-01-11T08:07:31.833Z,6.37
2018-01-11T08:08:31.201Z,6.37
2018-01-11T08:09:31.801Z,6.34
2018-01-11T08:10:31.077Z,6.36
2018-01-11T08:11:31.647Z,6.34
2018-01-11T08:12:31.963Z,6.36
2018-01-11T08:13:31.328Z,6.32
2018-01-11T08:14:31.792Z,6.34
2018-01-11T08:15:31.085Z,6.34
2018-01-11T08:16:31.425Z,6.33
2018-01-11T08:17:31.814Z,6.35
2018-01-11T08:18:31.061Z,6.36
2018-01-11T08:19:31.316Z,6.32
2018-01-11T08:20:31.529Z,6.34
2018-01-11T08:21:31.801Z,6.33
2018-01-11T08:22:31.307Z,6.36
2018-01-11T08:23:31.508Z,6.33
2018-01-11T08:24:31.803Z,6.31
2018-01-11T08:25:32.086Z,6.32
2018-01-11T08:26:31.388Z,6.33
2018-01-11T08:27:31.663Z,6.34
2018-01-11T08:28:31.836Z,6.36
2018-01-11T08:29:32.240Z,6.37
2018-01-11T08:30:31.595Z,6.36
2018-01-11T08:31:31.910Z,6.37
2018-01-11T08:32:32.004Z,6.36
2018-01-11T08:33:31.284Z,6.37
2018-01-11T08:34:31.458Z,6.38
2018-01-11T08:35:31.674Z,6.37
2018-01-11T08:36:31.870Z,6.37
2018-01-11T08:37:32.129Z,6.39
2018-01-11T08:38:32.352Z,6.36
2018-01-11T08:39:31.557Z,6.36
2018-01-11T08:40:32.029Z,6.4
2018-01-11T08:41:32.209Z,6.37
2018-01-11T08:42:31.316Z,6.33
2018-01-11T08:43:31.527Z,6.36
2018-01-11T08:44:31.919Z,6.33
2018-01-11T08:45:31.984Z,6.34
2018-01-11T08:46:32.263Z,6.33
2018-01-11T08:47:31.545Z,6.37
2018-01-11T08:48:31.817Z,6.3
2018-01-11T08:49:32.148Z,6.31
2018-01-11T08:50:31.449Z,6.32
2018-01-11T08:51:31.784Z,6.35
2018-01-11T08:52:32.067Z,6.34
2018-01-11T08:53:31.240Z,6.33
2018-01-11T08:54:31.501Z,6.31
2018-01-11T08:55:31.916Z,6.33
2018-01-11T08:56:31.183Z,6.35
2018-01-11T08:57:31.353Z,6.34
2018-01-11T08:58:31.843Z,6.32
2018-01-11T08:59:32.014Z,6.35
2018-01-11T09:00:31.135Z,6.31
2018-01-11T09:01:31.113Z,6.29
2018-01-11T09:02:31.183Z,6.34
2018-01-11T09:03:31.288Z,6.29
2018-01-11T09:04:31.339Z,6.32
2018-01-11T09:05:31.401Z,6.34
2018-01-11T09:06:31.998Z,6.36
2018-01-11T09:07:31.300Z,6.36
2018-01-11T09:08:31.766Z,6.34
2018-01-11T09:09:32.083Z,6.33
2018-01-11T09:10:31.409Z,6.33
2018-01-11T09:11:31.684Z,6.33
2018-01-11T09:12:31.968Z,6.35
2018-01-11T09:13:31.274Z,6.35
2018-01-11T09:14:31.534Z,6.34
2018-01-11T09:15:31.750Z,6.34
2018-01-11T09:16:32.133Z,6.31
2018-01-11T09:17:31.558Z,6.34
2018-01-11T09:18:31.700Z,6.35
2018-01-11T09:19:32.112Z,6.32
2018-01-11T09:20:31.250Z,6.33
2018-01-11T09:21:31.550Z,6.36
2018-01-11T09:22:31.782Z,6.35
2018-01-11T09:23:32.042Z,6.38
2018-01-11T09:24:31.112Z,6.36
2018-01-11T09:25:31.498Z,6.34
2018-01-11T09:26:31.772Z,6.35
2018-01-11T09:27:31.946Z,6.36
2018-01-11T09:28:31.321Z,6.38
2018-01-11T09:29:31.683Z,6.4
2018-01-11T09:30:32.279Z,6.36
2018-01-11T09:31:31.671Z,6.36
2018-01-11T09:32:31.876Z,6.33
2018-01-11T09:33:32.023Z,6.36
2018-01-11T09:34:31.314Z,6.3
2018-01-11T09:35:31.764Z,6.34
2018-01-11T09:36:31.966Z,6.34
2018-01-11T09:37:31.462Z,6.34
2018-01-11T09:38:31.690Z,6.34
2018-01-11T09:39:32.092Z,6.37
2018-01-11T09:40:31.494Z,6.38
2018-01-11T09:41:31.757Z,6.37
2018-01-11T09:42:31.084Z,6.39
2018-01-11T09:43:31.419Z,6.41
2018-01-11T09:44:31.472Z,6.41
2018-01-11T09:45:31.694Z,6.41
2018-01-11T09:46:31.717Z,6.41
2018-01-11T09:47:32.015Z,6.4
2018-01-11T09:48:31.419Z,6.42
2018-01-11T09:49:31.593Z,6.43
2018-01-11T09:50:31.805Z,6.42
2018-01-11T09:51:31.876Z,6.44
2018-01-11T09:52:32.065Z,6.41
2018-01-11T09:53:31.350Z,6.43
2018-01-11T09:54:31.628Z,6.44
2018-01-11T09:55:31.820Z,6.44
2018-01-11T09:56:32.033Z,6.47
2018-01-11T09:57:32.206Z,6.41
2018-01-11T09:58:32.237Z,6.43
2018-01-11T09:59:32.276Z,6.45
2018-01-11T10:00:32.513Z,6.48
2018-01-11T10:01:31.886Z,6.5
2018-01-11T10:02:32.103Z,6.48
2018-01-11T10:03:32.252Z,6.49
2018-01-11T10:04:32.365Z,6.44
2018-01-11T10:05:33.417Z,6.43
2018-01-11T10:06:32.354Z,6.43
2018-01-11T10:07:31.776Z,6.41
2018-01-11T10:08:33.300Z,6.46
2018-01-11T10:09:31.771Z,6.46
2018-01-11T10:10:32.082Z,6.43
2018-01-11T10:11:32.133Z,6.43
2018-01-11T10:12:32.473Z,6.45
2018-01-11T10:13:31.592Z,6.46
2018-01-11T10:14:31.928Z,6.46
2018-01-11T10:15:32.218Z,6.46
2018-01-11T10:16:32.637Z,6.45
2018-01-11T10:17:32.709Z,6.43
2018-01-11T10:18:31.856Z,6.42
2018-01-11T10:19:32.292Z,6.48
2018-01-11T10:20:32.266Z,6.49
2018-01-11T10:21:31.533Z,6.47
2018-01-11T10:22:32.545Z,6.47
2018-01-11T10:23:32.184Z,6.51
2018-01-11T10:24:32.659Z,6.52
2018-01-11T10:25:31.931Z,6.5
2018-01-11T10:26:33.149Z,6.49
2018-01-11T10:27:32.533Z,6.49
2018-01-11T10:28:31.956Z,6.5
2018-01-11T10:29:32.040Z,6.5
2018-01-11T10:30:32.291Z,6.51
2018-01-11T10:31:31.987Z,6.52
2018-01-11T10:32:32.042Z,6.52
2018-01-11T10:33:33.171Z,6.53
2018-01-11T10:34:32.295Z,6.51
2018-01-11T10:35:31.649Z,6.51
2018-01-11T10:36:36.000Z,6.51
2018-01-11T10:37:34.049Z,6.53
2018-01-11T10:38:32.286Z,6.56
2018-01-11T10:39:32.434Z,6.52
2018-01-11T10:40:31.555Z,6.55
2018-01-11T10:41:31.798Z,6.56
2018-01-11T10:42:32.109Z,6.57
2018-01-11T10:43:32.330Z,6.56
2018-01-11T10:44:31.510Z,6.55
2018-01-11T10:45:31.835Z,6.58
2018-01-11T10:46:32.007Z,6.55
2018-01-11T10:47:32.238Z,6.57
2018-01-11T10:48:32.553Z,6.58
2018-01-11T10:49:32.070Z,6.62
2018-01-11T10:50:32.316Z,6.61
2018-01-11T10:51:31.399Z,6.62
2018-01-11T10:52:31.536Z,6.62
2018-01-11T10:53:31.617Z,6.6
2018-01-11T10:54:31.907Z,6.59
2018-01-11T10:55:32.249Z,6.57
2018-01-11T10:56:31.602Z,6.55
2018-01-11T10:57:31.694Z,6.61
2018-01-11T10:58:31.967Z,6.59
2018-01-11T10:59:31.559Z,6.64
2018-01-11T11:00:31.913Z,6.61
2018-01-11T11:01:32.060Z,6.63
2018-01-11T11:02:31.222Z,6.61
2018-01-11T11:03:31.393Z,6.69
2018-01-11T11:04:31.620Z,6.66
2018-01-11T11:05:31.906Z,6.7
2018-01-11T11:06:32.043Z,6.65
2018-01-11T11:07:31.371Z,6.63
2018-01-11T11:08:31.505Z,6.63
2018-01-11T11:09:31.691Z,6.66
2018-01-11T11:10:31.943Z,6.68
2018-01-11T11:11:32.308Z,6.69
2018-01-11T11:12:31.706Z,6.66
2018-01-11T11:13:32.051Z,6.66
2018-01-11T11:14:31.308Z,6.68
2018-01-11T11:15:31.668Z,6.7
2018-01-11T11:16:32.055Z,6.65
2018-01-11T11:17:31.625Z,6.63
2018-01-11T11:18:31.738Z,6.61
2018-01-11T11:19:31.809Z,6.64
2018-01-11T11:20:32.128Z,6.67
2018-01-11T11:21:31.207Z,6.7
2018-01-11T11:22:31.464Z,6.72
2018-01-11T11:23:31.680Z,6.71
2018-01-11T11:24:31.899Z,6.67
2018-01-11T11:25:32.401Z,6.71
2018-01-11T11:26:31.815Z,6.74
2018-01-11T11:27:30.983Z,6.73
2018-01-11T11:28:31.332Z,6.72
2018-01-11T11:29:31.576Z,6.77
2018-01-11T11:30:30.761Z,6.76
2018-01-11T11:31:32.007Z,6.75
2018-01-11T11:32:31.734Z,6.74
2018-01-11T11:33:32.271Z,6.77
2018-01-11T11:34:31.296Z,6.78
2018-01-11T11:35:31.648Z,6.74
2018-01-11T11:36:30.826Z,6.77
2018-01-11T11:37:31.170Z,6.79
2018-01-11T11:38:31.436Z,6.85
2018-01-11T11:39:30.883Z,6.89
2018-01-11T11:40:31.236Z,6.85
2018-01-11T11:41:31.505Z,6.87
2018-01-11T11:42:31.070Z,6.89
2018-01-11T11:43:31.244Z,6.9
2018-01-11T11:44:31.539Z,6.92
2018-01-11T11:45:30.838Z,6.96
2018-01-11T11:46:31.216Z,6.93
2018-01-11T11:47:31.616Z,6.91
2018-01-11T11:48:30.796Z,6.91
2018-01-11T11:49:31.311Z,6.91
2018-01-11T11:50:30.711Z,6.97
2018-01-11T11:51:30.866Z,6.91
2018-01-11T11:52:31.126Z,6.93
2018-01-11T11:53:31.570Z,6.96
2018-01-11T11:54:30.948Z,6.96
2018-01-11T11:55:31.371Z,6.96
2018-01-11T11:56:30.804Z,6.96
2018-01-11T11:57:31.317Z,6.92
2018-01-11T11:58:31.627Z,6.95
2018-01-11T11:59:32.095Z,6.96
2018-01-11T12:00:31.632Z,6.88
2018-01-11T12:01:32.032Z,6.92
2018-01-11T12:02:31.428Z,6.98
2018-01-11T12:03:32.400Z,6.99
2018-01-11T12:04:31.749Z,7.05
2018-01-11T12:05:32.109Z,7.07
2018-01-11T12:06:31.262Z,7.03
2018-01-11T12:07:31.561Z,7.06
2018-01-11T12:08:31.936Z,7.09
2018-01-11T12:09:31.448Z,7.04
2018-01-11T12:10:31.745Z,7.01
2018-01-11T12:11:32.128Z,6.97
2018-01-11T12:12:31.592Z,6.94
2018-01-11T12:13:32.086Z,6.92
2018-01-11T12:14:31.284Z,7
2018-01-11T12:15:31.458Z,6.99
2018-01-11T12:16:31.733Z,6.98
2018-01-11T12:17:34.302Z,7.01
2018-01-11T12:18:31.587Z,6.88
2018-01-11T12:19:31.955Z,6.87
2018-01-11T12:20:33.413Z,6.86
2018-01-11T12:21:31.968Z,6.92
2018-01-11T12:22:34.519Z,6.93
2018-01-11T12:23:32.034Z,6.94
2018-01-11T12:24:31.517Z,6.93
2018-01-11T12:25:32.014Z,6.83
2018-01-11T12:26:31.256Z,6.85
2018-01-11T12:27:31.821Z,6.85
2018-01-11T12:28:32.790Z,6.87
2018-01-11T12:29:32.070Z,6.94
2018-01-11T12:30:38.528Z,6.98
2018-01-11T12:31:32.789Z,6.97
2018-01-11T12:32:33.178Z,7.01
2018-01-11T12:33:32.660Z,6.96
2018-01-11T12:34:31.955Z,6.94
2018-01-11T12:35:32.424Z,7.01
2018-01-11T12:36:31.773Z,7.03
2018-01-11T12:37:32.135Z,7.02
2018-01-11T12:38:54.361Z,7
2018-01-11T12:39:32.570Z,7.06
2018-01-11T12:40:31.954Z,7.04
2018-01-11T12:41:32.348Z,7
2018-01-11T12:42:31.831Z,7.01
2018-01-11T12:43:32.163Z,7.07
2018-01-11T12:44:32.548Z,7.02
2018-01-11T12:45:31.871Z,7.05
2018-01-11T12:46:32.147Z,7.09
2018-01-11T12:47:32.414Z,7.06
2018-01-11T12:48:31.828Z,7.07
2018-01-11T12:49:32.372Z,7.1
2018-01-11T12:50:31.780Z,7.06
2018-01-11T12:51:32.180Z,7.11
2018-01-11T12:52:32.598Z,7.12
2018-01-11T12:53:32.080Z,7.12
2018-01-11T12:54:32.506Z,7.14
2018-01-11T12:55:32.434Z,7.16
2018-01-11T12:56:31.740Z,7.18
2018-01-11T12:57:32.401Z,7.18
2018-01-11T12:58:31.834Z,7.17
2018-01-11T12:59:32.095Z,7.17
2018-01-11T13:00:31.414Z,7.17
2018-01-11T13:01:31.807Z,7.18
2018-01-11T13:02:32.132Z,7.18
2018-01-11T13:03:31.435Z,7.22
2018-01-11T13:04:31.863Z,7.22
2018-01-11T13:05:32.263Z,7.18
2018-01-11T13:06:31.602Z,7.2
2018-01-11T13:07:32.047Z,7.22
2018-01-11T13:08:31.512Z,7.19
2018-01-11T13:09:32.236Z,7.22
2018-01-11T13:10:31.574Z,7.15
2018-01-11T13:11:32.037Z,7.16
2018-01-11T13:14:58.118Z,7.17
2018-01-11T13:15:31.705Z,7.15
2018-01-11T13:16:32.412Z,7.13
2018-01-11T13:17:32.172Z,7.16
2018-01-11T13:18:31.792Z,7.17
2018-01-11T13:19:33.286Z,7.15
2018-01-11T13:20:31.674Z,7.2
2018-01-11T13:21:33.371Z,7.17
2018-01-11T13:22:33.018Z,7.19
2018-01-11T13:23:31.595Z,7.17
2018-01-11T13:24:33.180Z,7.14
2018-01-11T13:25:31.757Z,7.19
2018-01-11T13:26:32.852Z,7.11
2018-01-11T13:27:33.366Z,7.13